Shirahamamaru — JG4872 — position and weather

sailwx.info

Track history (hours):
 
Tides and Currents Weather Stations Pressure Air Temp Water Temp Dewpoint Dewpoint Depression Visibility Wind Speed Wind Dir Waves Ship Positions

Shirahamamaru

Last reported at 2015-Aug-02 23:33 UTC. Time now 2015-Aug-03 00:25 UTC.
Position N 35°13' E 139°45'.

Length 79 m; draft 3.2 m.

Type: Passenger vessel. MMSI: 431000239.

Date/timePositionNaut miles runAvg speedWind from/ knotsBaromVisibWave heightAir tempDewpointWater temp
2015-Aug-02 23:33N 35°13' E 139°45'1 1.2
2015-Aug-02 22:34N 35°12' E 139°46'1 1.1
2015-Aug-02 21:33N 35°13' E 139°45'2 1.6
2015-Aug-02 20:34N 35°13' E 139°43'0 0.0
2015-Aug-02 11:09N 35°13' E 139°43'6 9.8
2015-Aug-02 10:33N 35°10' E 139°49'3 3.2
2015-Aug-02 09:33N 35°12' E 139°46'1 1.2
2015-Aug-02 08:33N 35°12' E 139°47'2 2.2
2015-Aug-02 07:33N 35°13' E 139°45'2 2.2
2015-Aug-02 06:33N 35°12' E 139°47'2 2.1
2015-Aug-02 05:33N 35°13' E 139°45'1 1.3
2015-Aug-02 04:33N 35°12' E 139°46'1 0.5
2015-Aug-02 03:33N 35°12' E 139°46'1 1.4
2015-Aug-02 02:33N 35°12' E 139°47'2 2.2
2015-Aug-02 01:33N 35°13' E 139°45'2 2.4
2015-Aug-02 00:33N 35°11' E 139°47'2 2.5
2015-Aug-01 23:33N 35°13' E 139°45'1 1.4
2015-Aug-01 22:33N 35°12' E 139°46'1 1.4
2015-Aug-01 21:33N 35°13' E 139°45'1 0.1
2015-Aug-01 11:33N 35°13' E 139°45'5 4.5
2015-Aug-01 10:28N 35°18' E 139°41'4 4.0
2015-Aug-01 09:33N 35°16' E 139°45'4 4.1
2015-Aug-01 08:33N 35°12' E 139°47'2 2.1
2015-Aug-01 07:33N 35°13' E 139°45'2 2.2
2015-Aug-01 06:34N 35°12' E 139°47'2 2.1
2015-Aug-01 05:33N 35°13' E 139°45'1 1.1
2015-Aug-01 04:33N 35°12' E 139°46'0 0.4
2015-Aug-01 03:33N 35°12' E 139°46'2 1.5
2015-Aug-01 02:33N 35°11' E 139°47'2 2.3
2015-Aug-01 01:33N 35°13' E 139°45'2 2.3
2015-Aug-01 00:33N 35°11' E 139°47'2 2.4
2015-Jul-31 23:33N 35°13' E 139°45'1 1.4
2015-Jul-31 22:33N 35°12' E 139°46'2 1.9
2015-Jul-31 21:33N 35°13' E 139°44'1 1.0
2015-Jul-31 20:33N 35°13' E 139°43'0 0.0
2015-Jul-31 11:08N 35°13' E 139°43'6 9.9
2015-Jul-31 10:33N 35°10' E 139°49'4 3.6
2015-Jul-31 09:33N 35°12' E 139°45'2 1.6
2015-Jul-31 08:33N 35°12' E 139°47'2 2.3
2015-Jul-31 07:33N 35°13' E 139°45'2 2.3
2015-Jul-31 06:33N 35°12' E 139°47'2 2.1
2015-Jul-31 05:33N 35°10' E 139°49'6 5.8
2015-Jul-31 04:33N 35°13' E 139°43'1 0.5
2015-Jul-31 03:33N 35°13' E 139°44'5 5.4
2015-Jul-31 02:33N 35°10' E 139°49'4 4.4
2015-Jul-31 01:33N 35°13' E 139°45'2 2.4
2015-Jul-31 00:33N 35°11' E 139°47'2 2.5
2015-Jul-30 23:33N 35°13' E 139°45'1 1.5
2015-Jul-30 22:33N 35°12' E 139°46'1 1.4
2015-Jul-30 21:33N 35°13' E 139°45'1 1.5
2015-Jul-30 20:33N 35°13' E 139°43'0 0.0
2015-Jul-30 11:07N 35°13' E 139°43'610.0
2015-Jul-30 10:33N 35°10' E 139°49'3 3.1
2015-Jul-30 09:33N 35°12' E 139°46'1 1.3
2015-Jul-30 08:34N 35°12' E 139°47'2 2.3
2015-Jul-30 07:33N 35°13' E 139°45'2 2.3
2015-Jul-30 06:33N 35°11' E 139°47'2 2.1
2015-Jul-30 05:33N 35°10' E 139°49'6 5.9
2015-Jul-30 04:33N 35°13' E 139°43'0 0.3
2015-Jul-30 03:33N 35°13' E 139°43'6 5.8
2015-Jul-30 02:33N 35°10' E 139°49'4 4.5
2015-Jul-30 01:33N 35°13' E 139°45'2 2.4
2015-Jul-30 00:33N 35°11' E 139°47'2 2.4
2015-Jul-29 23:33N 35°13' E 139°45'2 1.8
2015-Jul-29 22:33N 35°11' E 139°46'2 1.7
2015-Jul-29 21:33N 35°13' E 139°45'1 1.4
2015-Jul-29 20:33N 35°13' E 139°43'0 0.0
2015-Jul-29 11:11N 35°13' E 139°43'6 9.3
2015-Jul-29 10:33N 35°10' E 139°49'3 3.3
2015-Jul-29 09:33N 35°12' E 139°46'1 1.3
2015-Jul-29 08:33N 35°12' E 139°47'2 2.1
2015-Jul-29 07:33N 35°13' E 139°45'2 2.2
2015-Jul-29 06:33N 35°11' E 139°47'2 2.1
2015-Jul-29 05:33N 35°10' E 139°49'6 5.9
2015-Jul-29 04:33N 35°13' E 139°43'0 0.4
2015-Jul-29 03:33N 35°13' E 139°43'6 5.6
2015-Jul-29 02:33N 35°10' E 139°49'4 4.3
2015-Jul-29 01:33N 35°13' E 139°45'2 2.3
2015-Jul-29 00:33N 35°11' E 139°47'2 2.2
2015-Jul-28 23:33N 35°13' E 139°45'1 1.2
2015-Jul-28 22:33N 35°12' E 139°46'1 1.4
2015-Jul-28 21:33N 35°13' E 139°45'2 0.2
2015-Jul-28 11:09N 35°13' E 139°43'6 9.5
2015-Jul-28 10:33N 35°10' E 139°49'3 2.9
2015-Jul-28 09:33N 35°12' E 139°46'1 1.0
2015-Jul-28 08:34N 35°11' E 139°47'2 2.3
2015-Jul-28 07:32N 35°13' E 139°45'2 2.5
2015-Jul-28 06:33N 35°12' E 139°47'2 2.0
2015-Jul-28 05:33N 35°10' E 139°49'6 5.9
2015-Jul-28 04:33N 35°13' E 139°43'0 0.4
2015-Jul-28 03:33N 35°13' E 139°43'6 5.6
2015-Jul-28 02:33N 35°10' E 139°49'4 4.3
2015-Jul-28 01:33N 35°13' E 139°45'2 2.2
2015-Jul-28 00:33N 35°12' E 139°47'2 2.2
2015-Jul-27 23:33N 35°13' E 139°45'1 1.2
2015-Jul-27 22:33N 35°12' E 139°46'1 1.4
2015-Jul-27 21:32N 35°13' E 139°44'1 0.1
2015-Jul-27 11:08N 35°13' E 139°43'610.0
2015-Jul-27 10:33N 35°10' E 139°49'3 3.0
2015-Jul-27 09:33N 35°12' E 139°46'1 1.2
2015-Jul-27 08:33N 35°11' E 139°47'2 2.5
2015-Jul-27 07:33N 35°13' E 139°45'2 2.4
2015-Jul-27 06:34N 35°12' E 139°47'2 2.1
2015-Jul-27 05:33N 35°10' E 139°49'6 5.9
2015-Jul-27 04:34N 35°13' E 139°43'0 0.3
2015-Jul-27 03:34N 35°13' E 139°43'6 5.7
2015-Jul-27 02:33N 35°10' E 139°49'4 4.4
2015-Jul-27 01:33N 35°13' E 139°45'2 2.3
2015-Jul-27 00:33N 35°11' E 139°47'2 2.4
2015-Jul-26 23:33N 35°13' E 139°45'1 1.5
2015-Jul-26 22:33N 35°12' E 139°46'1 1.3
2015-Jul-26 21:33N 35°13' E 139°45'2 1.6
2015-Jul-26 20:33N 35°13' E 139°43'0 0.0
2015-Jul-26 11:18N 35°13' E 139°43'6 7.6
2015-Jul-26 10:33N 35°10' E 139°49'3 3.2
2015-Jul-26 09:33N 35°12' E 139°46'2 1.6
2015-Jul-26 08:33N 35°11' E 139°47'2 2.4
2015-Jul-26 07:33N 35°13' E 139°45'2 2.2
2015-Jul-26 06:33N 35°11' E 139°47'2 2.5
2015-Jul-26 05:33N 35°13' E 139°45'1 1.4
2015-Jul-26 04:33N 35°12' E 139°46'0 0.4
2015-Jul-26 03:34N 35°12' E 139°46'1 1.3
2015-Jul-26 02:33N 35°12' E 139°47'2 2.4
2015-Jul-26 01:33N 35°13' E 139°45'2 2.4
2015-Jul-26 00:34N 35°11' E 139°47'2 2.4
2015-Jul-25 23:33N 35°13' E 139°45'2 1.5
2015-Jul-25 22:33N 35°12' E 139°46'1 1.5
2015-Jul-25 21:33N 35°13' E 139°45'1 1.5
2015-Jul-25 20:33N 35°13' E 139°43'0 0.0
2015-Jul-25 11:08N 35°13' E 139°43'6 9.9
2015-Jul-25 10:33N 35°10' E 139°49'3 3.2
2015-Jul-25 09:33N 35°12' E 139°46'1 1.4
2015-Jul-25 08:33N 35°11' E 139°47'2 2.2
2015-Jul-25 07:33N 35°13' E 139°45'3 2.7
2015-Jul-25 06:33N 35°11' E 139°47'3 2.8
2015-Jul-25 05:33N 35°13' E 139°44'2 1.5
2015-Jul-25 04:33N 35°12' E 139°46'0 0.4
2015-Jul-25 03:33N 35°12' E 139°46'1 1.3
2015-Jul-25 02:33N 35°12' E 139°47'2 2.2
2015-Jul-25 01:33N 35°13' E 139°45'2 2.2
2015-Jul-25 00:34N 35°12' E 139°47'2 2.2
2015-Jul-24 23:33N 35°13' E 139°45'1 1.5
2015-Jul-24 22:33N 35°12' E 139°46'2 1.5
2015-Jul-24 21:33N 35°13' E 139°45'2 0.1
2015-Jul-24 11:06N 35°13' E 139°43'610.3
2015-Jul-24 10:33N 35°10' E 139°49'3 3.1
2015-Jul-24 09:33N 35°12' E 139°46'1 1.2
2015-Jul-24 08:33N 35°12' E 139°47'2 2.3
2015-Jul-24 07:33N 35°13' E 139°45'2 2.3
2015-Jul-24 06:33N 35°11' E 139°47'2 2.1
2015-Jul-24 05:32N 35°10' E 139°49'6 6.0
2015-Jul-24 04:33N 35°13' E 139°43'0 0.2
2015-Jul-24 03:33N 35°13' E 139°43'6 5.8
2015-Jul-24 02:33N 35°10' E 139°49'4 4.2
2015-Jul-24 01:33N 35°13' E 139°45'2 2.1
2015-Jul-24 00:33N 35°11' E 139°47'  
Track history (hours):
 
Tides and Currents Weather Stations Pressure Air Temp Water Temp Dewpoint Dewpoint Depression Visibility Wind Speed Wind Dir Waves Ship Positions

Shirahamamaru

Last reported at 2015-Aug-02 23:33 UTC. Time now 2015-Aug-03 00:25 UTC.
Position N 35°13' E 139°45'.

Length 79 m; draft 3.2 m.

Type: Passenger vessel. MMSI: 431000239.

Date/timePositionNaut miles runAvg speedWind from/ knotsBaromVisibWave heightAir tempDewpointWater temp
2015-Aug-02 23:33N 35°13' E 139°45'1 1.2
2015-Aug-02 22:34N 35°12' E 139°46'1 1.1
2015-Aug-02 21:33N 35°13' E 139°45'2 1.6
2015-Aug-02 20:34N 35°13' E 139°43'0 0.0
2015-Aug-02 11:09N 35°13' E 139°43'6 9.8
2015-Aug-02 10:33N 35°10' E 139°49'3 3.2
2015-Aug-02 09:33N 35°12' E 139°46'1 1.2
2015-Aug-02 08:33N 35°12' E 139°47'2 2.2
2015-Aug-02 07:33N 35°13' E 139°45'2 2.2
2015-Aug-02 06:33N 35°12' E 139°47'2 2.1
2015-Aug-02 05:33N 35°13' E 139°45'1 1.3
2015-Aug-02 04:33N 35°12' E 139°46'1 0.5
2015-Aug-02 03:33N 35°12' E 139°46'1 1.4
2015-Aug-02 02:33N 35°12' E 139°47'2 2.2
2015-Aug-02 01:33N 35°13' E 139°45'2 2.4
2015-Aug-02 00:33N 35°11' E 139°47'2 2.5
2015-Aug-01 23:33N 35°13' E 139°45'1 1.4
2015-Aug-01 22:33N 35°12' E 139°46'1 1.4
2015-Aug-01 21:33N 35°13' E 139°45'1 0.1
2015-Aug-01 11:33N 35°13' E 139°45'5 4.5
2015-Aug-01 10:28N 35°18' E 139°41'4 4.0
2015-Aug-01 09:33N 35°16' E 139°45'4 4.1
2015-Aug-01 08:33N 35°12' E 139°47'2 2.1
2015-Aug-01 07:33N 35°13' E 139°45'2 2.2
2015-Aug-01 06:34N 35°12' E 139°47'2 2.1
2015-Aug-01 05:33N 35°13' E 139°45'1 1.1
2015-Aug-01 04:33N 35°12' E 139°46'0 0.4
2015-Aug-01 03:33N 35°12' E 139°46'2 1.5
2015-Aug-01 02:33N 35°11' E 139°47'2 2.3
2015-Aug-01 01:33N 35°13' E 139°45'2 2.3
2015-Aug-01 00:33N 35°11' E 139°47'2 2.4
2015-Jul-31 23:33N 35°13' E 139°45'1 1.4
2015-Jul-31 22:33N 35°12' E 139°46'2 1.9
2015-Jul-31 21:33N 35°13' E 139°44'1 1.0
2015-Jul-31 20:33N 35°13' E 139°43'0 0.0
2015-Jul-31 11:08N 35°13' E 139°43'6 9.9
2015-Jul-31 10:33N 35°10' E 139°49'4 3.6
2015-Jul-31 09:33N 35°12' E 139°45'2 1.6
2015-Jul-31 08:33N 35°12' E 139°47'2 2.3
2015-Jul-31 07:33N 35°13' E 139°45'2 2.3
2015-Jul-31 06:33N 35°12' E 139°47'2 2.1
2015-Jul-31 05:33N 35°10' E 139°49'6 5.8
2015-Jul-31 04:33N 35°13' E 139°43'1 0.5
2015-Jul-31 03:33N 35°13' E 139°44'5 5.4
2015-Jul-31 02:33N 35°10' E 139°49'4 4.4
2015-Jul-31 01:33N 35°13' E 139°45'2 2.4
2015-Jul-31 00:33N 35°11' E 139°47'2 2.5
2015-Jul-30 23:33N 35°13' E 139°45'1 1.5
2015-Jul-30 22:33N 35°12' E 139°46'1 1.4
2015-Jul-30 21:33N 35°13' E 139°45'1 1.5
2015-Jul-30 20:33N 35°13' E 139°43'0 0.0
2015-Jul-30 11:07N 35°13' E 139°43'610.0
2015-Jul-30 10:33N 35°10' E 139°49'3 3.1
2015-Jul-30 09:33N 35°12' E 139°46'1 1.3
2015-Jul-30 08:34N 35°12' E 139°47'2 2.3
2015-Jul-30 07:33N 35°13' E 139°45'2 2.3
2015-Jul-30 06:33N 35°11' E 139°47'2 2.1
2015-Jul-30 05:33N 35°10' E 139°49'6 5.9
2015-Jul-30 04:33N 35°13' E 139°43'0 0.3
2015-Jul-30 03:33N 35°13' E 139°43'6 5.8
2015-Jul-30 02:33N 35°10' E 139°49'4 4.5
2015-Jul-30 01:33N 35°13' E 139°45'2 2.4
2015-Jul-30 00:33N 35°11' E 139°47'2 2.4
2015-Jul-29 23:33N 35°13' E 139°45'2 1.8
2015-Jul-29 22:33N 35°11' E 139°46'2 1.7
2015-Jul-29 21:33N 35°13' E 139°45'1 1.4
2015-Jul-29 20:33N 35°13' E 139°43'0 0.0
2015-Jul-29 11:11N 35°13' E 139°43'6 9.3
2015-Jul-29 10:33N 35°10' E 139°49'3 3.3
2015-Jul-29 09:33N 35°12' E 139°46'1 1.3
2015-Jul-29 08:33N 35°12' E 139°47'2 2.1
2015-Jul-29 07:33N 35°13' E 139°45'2 2.2
2015-Jul-29 06:33N 35°11' E 139°47'2 2.1
2015-Jul-29 05:33N 35°10' E 139°49'6 5.9
2015-Jul-29 04:33N 35°13' E 139°43'0 0.4
2015-Jul-29 03:33N 35°13' E 139°43'6 5.6
2015-Jul-29 02:33N 35°10' E 139°49'4 4.3
2015-Jul-29 01:33N 35°13' E 139°45'2 2.3
2015-Jul-29 00:33N 35°11' E 139°47'2 2.2
2015-Jul-28 23:33N 35°13' E 139°45'1 1.2
2015-Jul-28 22:33N 35°12' E 139°46'1 1.4
2015-Jul-28 21:33N 35°13' E 139°45'2 0.2
2015-Jul-28 11:09N 35°13' E 139°43'6 9.5
2015-Jul-28 10:33N 35°10' E 139°49'3 2.9
2015-Jul-28 09:33N 35°12' E 139°46'1 1.0
2015-Jul-28 08:34N 35°11' E 139°47'2 2.3
2015-Jul-28 07:32N 35°13' E 139°45'2 2.5
2015-Jul-28 06:33N 35°12' E 139°47'2 2.0
2015-Jul-28 05:33N 35°10' E 139°49'6 5.9
2015-Jul-28 04:33N 35°13' E 139°43'0 0.4
2015-Jul-28 03:33N 35°13' E 139°43'6 5.6
2015-Jul-28 02:33N 35°10' E 139°49'4 4.3
2015-Jul-28 01:33N 35°13' E 139°45'2 2.2
2015-Jul-28 00:33N 35°12' E 139°47'2 2.2
2015-Jul-27 23:33N 35°13' E 139°45'1 1.2
2015-Jul-27 22:33N 35°12' E 139°46'1 1.4
2015-Jul-27 21:32N 35°13' E 139°44'1 0.1
2015-Jul-27 11:08N 35°13' E 139°43'610.0
2015-Jul-27 10:33N 35°10' E 139°49'3 3.0
2015-Jul-27 09:33N 35°12' E 139°46'1 1.2
2015-Jul-27 08:33N 35°11' E 139°47'2 2.5
2015-Jul-27 07:33N 35°13' E 139°45'2 2.4
2015-Jul-27 06:34N 35°12' E 139°47'2 2.1
2015-Jul-27 05:33N 35°10' E 139°49'6 5.9
2015-Jul-27 04:34N 35°13' E 139°43'0 0.3
2015-Jul-27 03:34N 35°13' E 139°43'6 5.7
2015-Jul-27 02:33N 35°10' E 139°49'4 4.4
2015-Jul-27 01:33N 35°13' E 139°45'2 2.3
2015-Jul-27 00:33N 35°11' E 139°47'2 2.4
2015-Jul-26 23:33N 35°13' E 139°45'1 1.5
2015-Jul-26 22:33N 35°12' E 139°46'1 1.3
2015-Jul-26 21:33N 35°13' E 139°45'2 1.6
2015-Jul-26 20:33N 35°13' E 139°43'0 0.0
2015-Jul-26 11:18N 35°13' E 139°43'6 7.6
2015-Jul-26 10:33N 35°10' E 139°49'3 3.2
2015-Jul-26 09:33N 35°12' E 139°46'2 1.6
2015-Jul-26 08:33N 35°11' E 139°47'2 2.4
2015-Jul-26 07:33N 35°13' E 139°45'2 2.2
2015-Jul-26 06:33N 35°11' E 139°47'2 2.5
2015-Jul-26 05:33N 35°13' E 139°45'1 1.4
2015-Jul-26 04:33N 35°12' E 139°46'0 0.4
2015-Jul-26 03:34N 35°12' E 139°46'1 1.3
2015-Jul-26 02:33N 35°12' E 139°47'2 2.4
2015-Jul-26 01:33N 35°13' E 139°45'2 2.4
2015-Jul-26 00:34N 35°11' E 139°47'2 2.4
2015-Jul-25 23:33N 35°13' E 139°45'2 1.5
2015-Jul-25 22:33N 35°12' E 139°46'1 1.5
2015-Jul-25 21:33N 35°13' E 139°45'1 1.5
2015-Jul-25 20:33N 35°13' E 139°43'0 0.0
2015-Jul-25 11:08N 35°13' E 139°43'6 9.9
2015-Jul-25 10:33N 35°10' E 139°49'3 3.2
2015-Jul-25 09:33N 35°12' E 139°46'1 1.4
2015-Jul-25 08:33N 35°11' E 139°47'2 2.2
2015-Jul-25 07:33N 35°13' E 139°45'3 2.7
2015-Jul-25 06:33N 35°11' E 139°47'3 2.8
2015-Jul-25 05:33N 35°13' E 139°44'2 1.5
2015-Jul-25 04:33N 35°12' E 139°46'0 0.4
2015-Jul-25 03:33N 35°12' E 139°46'1 1.3
2015-Jul-25 02:33N 35°12' E 139°47'2 2.2
2015-Jul-25 01:33N 35°13' E 139°45'2 2.2
2015-Jul-25 00:34N 35°12' E 139°47'2 2.2
2015-Jul-24 23:33N 35°13' E 139°45'1 1.5
2015-Jul-24 22:33N 35°12' E 139°46'2 1.5
2015-Jul-24 21:33N 35°13' E 139°45'2 0.1
2015-Jul-24 11:06N 35°13' E 139°43'610.3
2015-Jul-24 10:33N 35°10' E 139°49'3 3.1
2015-Jul-24 09:33N 35°12' E 139°46'1 1.2
2015-Jul-24 08:33N 35°12' E 139°47'2 2.3
2015-Jul-24 07:33N 35°13' E 139°45'2 2.3
2015-Jul-24 06:33N 35°11' E 139°47'2 2.1
2015-Jul-24 05:32N 35°10' E 139°49'6 6.0
2015-Jul-24 04:33N 35°13' E 139°43'0 0.2
2015-Jul-24 03:33N 35°13' E 139°43'6 5.8
2015-Jul-24 02:33N 35°10' E 139°49'4 4.2
2015-Jul-24 01:33N 35°13' E 139°45'2 2.1
2015-Jul-24 00:33N 35°11' E 139°47'  

Dump ship's entire track history